CYYJ/YYJ METAR and TAF weather

Enter ICAO airport designator
Station Type Date Time Source
CYYJ METAR 2020/04/06 07:00 UTC NOAA

CYYJ 060700Z 24006KT 30SM FEW250 04/01 A2974 RMK CI1 SLP074


Station Type Date Time Source
CYYJ Decoded METAR 2020/04/06 07:00 UTC NOAA

Victoria Int. Airport, B. C., Canada (CYYJ) 48-39N 123-26W 19M
Apr 06, 2020 - 03:00 AM EDT / 2020.04.06 0700 UTC
Wind: from the WSW (240 degrees) at 7 MPH (6 KT):0
Visibility: 30 mile(s):0
Sky conditions: mostly clear
Temperature: 39 F (4 C)
Dew Point: 33 F (1 C)
Relative Humidity: 80%
Pressure (altimeter): 29.74 in. Hg (1007 hPa)
ob: CYYJ 060700Z 24006KT 30SM FEW250 04/01 A2974 RMK CI1 SLP074
cycle: 7

Station Type Date Time Source
CYYJ TAF 2020/04/06 06:42 UTC NOAA

TAF CYYJ 060538Z 0606/0706 26006KT P6SM FEW090
FM061800 08008KT P6SM FEW040 SCT200
RMK NXT FCST BY 061200Z

Example: see airport list